Sponsor Message:
Civil Aviation Forum
My Starred Topics | Profile | New Topic | Forum Index | Help | Search 
CWL Delays Friday 26th  
User currently offlineCardiffairtaxi From United Kingdom, joined Mar 2006, 303 posts, RR: 0
Posted (8 years 6 months 4 weeks 7 hours ago) and read 1423 times:

Does anybody know why CWL had so many long delays yesterday?
Was it just down to weather or something else?
I know 13.20pm BMI Baby flight to EDI was estimating midnight departure!
Also diversions to BHX,BRS and EXT.

3 replies: All unread, jump to last
 
User currently offlineJulianUK From United Kingdom, joined Apr 2006, 105 posts, RR: 0
Reply 1, posted (8 years 6 months 4 weeks 7 hours ago) and read 1415 times:

this says it all:


Aviation Digital Data Service (ADDS)
Output produced by METARs form (1211 UTC 27 May 2006)
found at http://adds.aviationweather.gov/metars/index.php

EGFF 271150Z 25012KT 0800 R30/P1500 R12/P1500 RA FG BKN001 OVC002 13/13 Q1020
EGFF 271120Z 26012KT 0800 R30/P1500 R12/P1500 RA FG BKN001 OVC002 13/13 Q1020
EGFF 271050Z 26011KT 0900 R30/P1500 R12/P1500 RA FG BKN001 OVC002 13/13 Q1020
EGFF 271020Z 26008KT 0700 R30/P1500 R12/P1500 RA BR OVC001 12/12 Q1020
EGFF 270950Z 26008KT 1200 R30/P1500 R12/P1500 -RA BR BKN001 12/12 Q1021
EGFF 270920Z 26009KT 1400 -RA BR BKN001 12/12 Q1021
EGFF 270850Z 25008KT 2000 -RA BKN001 12/12 Q1021
EGFF 270820Z 25008KT 4500 -RA BKN001 12/12 Q1021
EGFF 270750Z 26010KT 0800 R30/P1500 R12/P1500 FG OVC001 12/12 Q1021
EGFF 270720Z 26011KT 0600 R30/1400 R12/1100 DZ FG OVC001 12/12 Q1021
EGFF 270650Z 26011KT 0500 R30/1100 R12/1400 DZ FG OVC001 12/12 Q1021
EGFF 270620Z 26011KT 0600 R30/P1500 R12/P1500 DZ FG OVC001 12/12 Q1022
EGFF 270550Z 26012KT 0600 R30/P1500 R12/1300 FG VV/// 12/12 Q1022
EGFF 270520Z 26012KT 0600 R30/1000 R12/0700 FG VV/// 12/12 Q1021
EGFF 270450Z 26012KT 0500 R30/1100 R12/0600 FG VV/// 12/12 Q1022
EGFF 270420Z 26011KT 0500 R30/0650 R12/0500 FG VV/// 12/12 Q1021
EGFF 270350Z 27010KT 0500 R30/0550 R12/0500 FG VV/// 12/12 Q1021
EGFF 270320Z 26011KT 0500 R30/0900 R12/0550 FG VV/// 12/12 Q1022
EGFF 270250Z 26012KT 0500 R30/1300 R12/0650 FG VV/// 12/12 Q1021
EGFF 270220Z NIL
EGFF 270150Z NIL
EGFF 270120Z NIL
EGFF 270050Z NIL
EGFF 270020Z 27009KT 0800 R30/1100 R12/1100 FG VV/// 12/12 Q1022
EGFF 262350Z 27008KT 0800 R30/1000 R12/1100 FG VV/// 12/12 Q1022
EGFF 262320Z 27010KT 0800 R30/P1500 R12/1100 FG VV/// 12/12 Q1021
EGFF 262250Z 26010KT 0800 R30/P1500 R12/1400 FG VV/// 12/12 Q1022
EGFF 262220Z 26010KT 0500 R30/1000 R12/0650 FG OVC001 12/12 Q1022
EGFF 262150Z 26012KT 2000 DZ OVC001 12/12 Q1022
EGFF 262120Z 26010KT 3000 DZ OVC001 12/12 Q1022
EGFF 262050Z 27009KT 1000 R30/P1500 R12/P1500 BR OVC001 12/12 Q1021
EGFF 262020Z 27008KT 1000 R30/P1500 R12/P1500 BR OVC001 12/12 Q1021
EGFF 261950Z 27010KT 0800 R30/P1500 R12/P1500 FG OVC001 12/12 Q1021
EGFF 261920Z 27011KT 0900 R30/P1500 R12/P1500 FG OVC001 12/12 Q1020
EGFF 261850Z 26011KT 0700 R30/P1500 R12/1500 FG OVC000 12/12 Q1020
EGFF 261820Z 26010KT 0900 R30/P1500 R12/P1500 FG OVC001 12/12 Q1020
EGFF 261750Z 26013KT 0500 R30/0900 R12/1100 FG VV/// 12/12 Q1020
EGFF 261720Z 26014KT 0350 R30/0650 R12/0600 FG VV/// 12/12 Q1020
EGFF 261650Z 26013KT 0400 R30/0500 R12/0550 FG VV/// 12/12 Q1020
EGFF 261620Z 26012KT 0400 R30/0650 R12/0650 FG VV/// 13/12 Q1020
EGFF 261550Z 27013KT 0400 R30/0750 R12/0750 FG OVC000 13/12 Q1020
EGFF 261520Z 26014KT 0400 R30/0750 R12/0700 FG OVC000 13/12 Q1019
EGFF 261450Z 27013KT 0300 R30/0650 R12/0600 FG VV/// 13/12 Q1019
EGFF 261420Z 26015KT 0550 R30/0900 R12/0900 FG VV/// 13/13 Q1019
EGFF 261350Z 27013KT 0650 R30/P1500 R12/P1500 FG VV/// 13/13 Q1019
EGFF 261320Z 26016KT 0250 R30/0750 R12/0550 -RA FG VV/// 13/13 Q1018
EGFF 261250Z 26017KT 0600 R30/1300 R12/1300 -RA FG VV/// 13/13 Q1018
EGFF 261220Z 27014KT 0500 R30/1300 R12/1500 -RA FG VV/// 13/13 Q1018
EGFF 261150Z 26015KT 0600 R30/1200 R12/1100 -RADZ BR VV/// 13/13 Q1018
EGFF 261120Z 26015KT 1400 R30/P1500 R12/P1500 -RADZ BR VV/// 13/13 Q1017
EGFF 261050Z 26014KT 1400 R30/P1500 R12/P1500 -RA BKN001 13/13 Q1017
EGFF 261020Z 26016KT 1400 R30/P1500 R12/P1500 RA FEW001 BKN003 13/13 Q1017
EGFF 260950Z 26018G28KT 1400 R30/P1500 R12/P1500 RA FEW001 BKN003 13/13 Q1016
EGFF 260920Z 26017KT 1400 R30/P1500 R12/P1500 RA BKN002 13/12 Q1016
EGFF 260850Z 26017KT 1400 R30/P1500 R12/P1500 RA BKN001 13/13 Q1016
EGFF 260820Z 26015KT 1400 R30/P1500 R12/P1500 RA BKN001 13/12 Q1016
EGFF 260750Z 26016KT 1400 R30/1300 R12/1200 +RA VV/// 13/12 Q1016
EGFF 260720Z 26019KT 2500 RA SCT002 BKN003 13/12 Q1016 RERA
EGFF 260650Z 26017KT 2500 -RA BKN001 13/12 Q1015 RERA
EGFF 260620Z 26016KT 1700 RA BKN001 13/12 Q1015 RERA
EGFF 260550Z 26017G27KT 3000 -RA BKN001 BKN003 13/13 Q1015
EGFF 260520Z 25016KT 3000 -RA SCT002 BKN003 13/13 Q1015
EGFF 260450Z 26014KT 3000 RA SCT001 BKN030 13/13 Q1015
EGFF 260420Z 25008KT 8000 -RA SCT001 13/13 Q1015
EGFF 260350Z 27006KT 7000 -RA SCT001 BKN002 12/12 Q1016
EGFF 260320Z 25004KT 3000 -RA SCT001 BKN002 12/12 Q1016
EGFF 260250Z 24007KT 3000 -RA SCT001 BKN002 12/12 Q1017
EGFF 260220Z 25008KT 3000 -RA SCT001 BKN002 12/12 Q1017
EGFF 260150Z NIL
EGFF 260120Z NIL
EGFF 260050Z NIL
EGFF 260020Z NIL


User currently offlineCwldude From United Kingdom, joined May 2006, 691 posts, RR: 1
Reply 2, posted (8 years 6 months 4 weeks 6 hours ago) and read 1379 times:

What's Up At CWL? (by Cwldude May 26 2006 in Civil Aviation)

started this yesterday morning!!

I still don't know what's happened but it's extended into today with the knock-on effect. TOM's flight to CFU departed just short of 24 hours late, their flight to Bourgas departed about 15 hours late, XLAs DLM should be going any minute now which is 21 hours late, WW are having MAJOR problems today, as are FCA... seems MYT are the only ones with their heads screwed on today!

Good to see that everyone's trying their best to get everything back on-track though, flying extra planes in and all that!!



Thomson Airways - The UKs premier charter airline // now flown : BY -AA -AJ -AE -AT; OO -AX -AU -RA -BG; BRIG; OBYD
User currently offlineCwldude From United Kingdom, joined May 2006, 691 posts, RR: 1
Reply 3, posted (8 years 6 months 4 weeks 6 hours ago) and read 1368 times:

and there we go...

http://news.bbc.co.uk/1/hi/wales/south_east/5023098.stm

bad weather both here and there!!



Thomson Airways - The UKs premier charter airline // now flown : BY -AA -AJ -AE -AT; OO -AX -AU -RA -BG; BRIG; OBYD
Top Of Page
Forum Index

This topic is archived and can not be replied to any more.

Printer friendly format

Similar topics:More similar topics...
CWL Delays posted Sat Jul 15 2006 16:25:31 by Cardiffairtaxi
CWL Friday Ibiza Flights posted Fri Jun 16 2006 15:27:24 by Cardiffairtaxi
KLM Delays From AMS On Friday posted Fri Jun 3 2005 22:04:19 by Trident2e
FR To Write EI Shareholders On Friday posted Thu Dec 14 2006 14:55:53 by LXLucien
SIA Looks To More 77Ws To Cover A380 Delays? posted Sat Dec 9 2006 22:42:29 by Kaitak
Flybe New Route, BHD-CWL posted Fri Dec 8 2006 00:40:52 by Linco22
FlyBe Annouce CWL Base posted Tue Dec 5 2006 14:38:35 by Caaardiff
A380 Causes Delays At SYD posted Fri Dec 1 2006 09:31:16 by Lumus
QF To YVR Re-starting On Friday posted Tue Nov 28 2006 06:32:32 by Ktachiya
Snow Storm In Vancouver Expect Major Delays posted Mon Nov 27 2006 10:34:24 by Connector4you